sensor_id;sensor_type;location;lat;lon;timestamp;pressure;altitude;pressure_sealevel;temperature;humidity
11339;BME280;5724;42.684;23.252;2022-10-20T00:01:47;94827.78;;;12.09;83.80
11339;BME280;5724;42.684;23.252;2022-10-20T00:04:13;94834.84;;;12.10;83.32
11339;BME280;5724;42.684;23.252;2022-10-20T00:06:38;94827.78;;;12.09;82.86
11339;BME280;5724;42.684;23.252;2022-10-20T00:09:05;94829.13;;;11.99;82.52
11339;BME280;5724;42.684;23.252;2022-10-20T00:11:31;94824.69;;;11.94;81.97
11339;BME280;5724;42.684;23.252;2022-10-20T00:13:58;94836.19;;;12.00;81.60
11339;BME280;5724;42.684;23.252;2022-10-20T00:16:26;94832.72;;;12.03;80.55
11339;BME280;5724;42.684;23.252;2022-10-20T00:18:52;94825.84;;;11.93;80.59
11339;BME280;5724;42.684;23.252;2022-10-20T00:21:20;94831.25;;;11.90;80.07
11339;BME280;5724;42.684;23.252;2022-10-20T00:23:47;94836.38;;;11.91;79.26
11339;BME280;5724;42.684;23.252;2022-10-20T00:26:13;94830.34;;;11.86;79.61
11339;BME280;5724;42.684;23.252;2022-10-20T00:28:39;94824.00;;;11.82;79.54
11339;BME280;5724;42.684;23.252;2022-10-20T00:31:05;94830.84;;;11.75;79.02
11339;BME280;5724;42.684;23.252;2022-10-20T00:33:31;94835.91;;;11.73;79.07
11339;BME280;5724;42.684;23.252;2022-10-20T00:36:05;94816.38;;;11.75;78.49
11339;BME280;5724;42.684;23.252;2022-10-20T00:38:31;94814.78;;;11.74;78.52
11339;BME280;5724;42.684;23.252;2022-10-20T00:40:56;94816.66;;;11.70;78.00
11339;BME280;5724;42.684;23.252;2022-10-20T00:43:49;94807.38;;;11.74;77.57
11339;BME280;5724;42.684;23.252;2022-10-20T00:46:18;94809.13;;;11.67;77.64
11339;BME280;5724;42.684;23.252;2022-10-20T00:48:49;94809.59;;;11.69;76.74
11339;BME280;5724;42.684;23.252;2022-10-20T00:51:17;94811.19;;;11.70;76.78
11339;BME280;5724;42.684;23.252;2022-10-20T00:53:44;94811.00;;;11.63;76.74
11339;BME280;5724;42.684;23.252;2022-10-20T00:56:11;94802.44;;;11.64;75.90
11339;BME280;5724;42.684;23.252;2022-10-20T00:58:37;94806.69;;;11.62;75.86
11339;BME280;5724;42.684;23.252;2022-10-20T01:01:03;94801.22;;;11.62;75.65
11339;BME280;5724;42.684;23.252;2022-10-20T01:03:49;94810.28;;;11.66;75.43
11339;BME280;5724;42.684;23.252;2022-10-20T01:06:18;94812.88;;;11.59;75.31
11339;BME280;5724;42.684;23.252;2022-10-20T01:08:44;94813.84;;;11.51;75.28
11339;BME280;5724;42.684;23.252;2022-10-20T01:11:28;94810.47;;;11.57;75.38
11339;BME280;5724;42.684;23.252;2022-10-20T01:32:51;94814.47;;;11.60;75.20
11339;BME280;5724;42.684;23.252;2022-10-20T01:35:35;94817.88;;;11.57;75.44
11339;BME280;5724;42.684;23.252;2022-10-20T01:40:42;94806.41;;;11.35;76.16
11339;BME280;5724;42.684;23.252;2022-10-20T01:43:10;94818.56;;;11.38;76.45
11339;BME280;5724;42.684;23.252;2022-10-20T01:45:39;94819.56;;;11.30;77.43
11339;BME280;5724;42.684;23.252;2022-10-20T01:48:08;94804.53;;;11.08;77.62
11339;BME280;5724;42.684;23.252;2022-10-20T01:50:36;94806.47;;;11.07;77.87
11339;BME280;5724;42.684;23.252;2022-10-20T01:53:03;94819.34;;;11.07;78.24
11339;BME280;5724;42.684;23.252;2022-10-20T01:55:29;94819.59;;;11.02;78.57
11339;BME280;5724;42.684;23.252;2022-10-20T02:00:45;94826.88;;;10.82;80.00
11339;BME280;5724;42.684;23.252;2022-10-20T02:10:49;94830.13;;;10.59;81.05
11339;BME280;5724;42.684;23.252;2022-10-20T02:13:17;94835.16;;;10.57;81.16
11339;BME280;5724;42.684;23.252;2022-10-20T02:15:50;94836.28;;;10.56;81.22
11339;BME280;5724;42.684;23.252;2022-10-20T02:18:21;94827.09;;;10.49;81.21
11339;BME280;5724;42.684;23.252;2022-10-20T02:20:51;94833.47;;;10.41;81.65
11339;BME280;5724;42.684;23.252;2022-10-20T02:23:18;94840.91;;;10.28;82.19
11339;BME280;5724;42.684;23.252;2022-10-20T02:25:46;94837.81;;;10.42;82.07
11339;BME280;5724;42.684;23.252;2022-10-20T02:28:13;94841.81;;;10.32;82.36
11339;BME280;5724;42.684;23.252;2022-10-20T02:30:40;94846.47;;;10.31;81.80
11339;BME280;5724;42.684;23.252;2022-10-20T02:33:06;94842.06;;;10.27;82.25
11339;BME280;5724;42.684;23.252;2022-10-20T02:35:33;94848.53;;;10.10;83.27
11339;BME280;5724;42.684;23.252;2022-10-20T02:38:01;94849.69;;;10.09;82.87
11339;BME280;5724;42.684;23.252;2022-10-20T02:40:27;94851.50;;;10.17;82.71
11339;BME280;5724;42.684;23.252;2022-10-20T02:42:52;94848.19;;;10.12;82.56
11339;BME280;5724;42.684;23.252;2022-10-20T02:45:18;94855.22;;;10.13;82.62
11339;BME280;5724;42.684;23.252;2022-10-20T02:47:43;94857.97;;;10.13;83.03
11339;BME280;5724;42.684;23.252;2022-10-20T02:50:09;94859.22;;;10.03;83.10
11339;BME280;5724;42.684;23.252;2022-10-20T02:52:35;94853.75;;;10.03;82.90
11339;BME280;5724;42.684;23.252;2022-10-20T02:55:03;94865.38;;;10.00;83.04
11339;BME280;5724;42.684;23.252;2022-10-20T02:57:28;94863.34;;;9.97;83.24
11339;BME280;5724;42.684;23.252;2022-10-20T02:59:54;94861.75;;;9.96;83.28
11339;BME280;5724;42.684;23.252;2022-10-20T03:02:19;94850.59;;;9.89;84.16
11339;BME280;5724;42.684;23.252;2022-10-20T03:04:45;94861.06;;;9.87;84.19
11339;BME280;5724;42.684;23.252;2022-10-20T03:07:10;94858.69;;;9.85;84.29
11339;BME280;5724;42.684;23.252;2022-10-20T03:09:36;94866.06;;;9.85;84.28
11339;BME280;5724;42.684;23.252;2022-10-20T03:12:02;94867.53;;;9.82;84.55
11339;BME280;5724;42.684;23.252;2022-10-20T03:14:27;94860.16;;;9.83;84.85
11339;BME280;5724;42.684;23.252;2022-10-20T03:16:53;94866.53;;;9.87;84.43
11339;BME280;5724;42.684;23.252;2022-10-20T03:19:18;94866.50;;;9.74;85.33
11339;BME280;5724;42.684;23.252;2022-10-20T03:21:44;94861.84;;;9.63;85.84
11339;BME280;5724;42.684;23.252;2022-10-20T03:24:11;94867.19;;;9.59;86.20
11339;BME280;5724;42.684;23.252;2022-10-20T03:26:36;94864.69;;;9.66;86.03
11339;BME280;5724;42.684;23.252;2022-10-20T03:29:02;94871.97;;;9.62;86.57
11339;BME280;5724;42.684;23.252;2022-10-20T03:31:27;94877.66;;;9.57;86.57
11339;BME280;5724;42.684;23.252;2022-10-20T03:33:53;94885.34;;;9.55;87.31
11339;BME280;5724;42.684;23.252;2022-10-20T03:36:18;94871.06;;;9.58;86.76
11339;BME280;5724;42.684;23.252;2022-10-20T03:38:44;94864.22;;;9.52;86.84
11339;BME280;5724;42.684;23.252;2022-10-20T03:41:09;94875.38;;;9.59;86.97
11339;BME280;5724;42.684;23.252;2022-10-20T03:43:37;94879.78;;;9.52;87.48
11339;BME280;5724;42.684;23.252;2022-10-20T03:46:04;94888.53;;;9.45;88.46
11339;BME280;5724;42.684;23.252;2022-10-20T03:48:31;94888.53;;;9.45;87.95
11339;BME280;5724;42.684;23.252;2022-10-20T03:50:58;94888.06;;;9.43;88.14
11339;BME280;5724;42.684;23.252;2022-10-20T03:53:24;94884.19;;;9.44;88.27
11339;BME280;5724;42.684;23.252;2022-10-20T03:55:49;94889.66;;;9.44;88.23
11339;BME280;5724;42.684;23.252;2022-10-20T03:58:15;94895.59;;;9.46;88.27
11339;BME280;5724;42.684;23.252;2022-10-20T04:00:40;94890.59;;;9.48;88.48
11339;BME280;5724;42.684;23.252;2022-10-20T04:03:06;94893.78;;;9.50;88.49
11339;BME280;5724;42.684;23.252;2022-10-20T04:05:31;94902.28;;;9.49;88.70
11339;BME280;5724;42.684;23.252;2022-10-20T04:07:56;94895.16;;;9.56;87.96
11339;BME280;5724;42.684;23.252;2022-10-20T04:10:22;94899.34;;;9.54;88.28
11339;BME280;5724;42.684;23.252;2022-10-20T04:12:48;94899.13;;;9.59;88.08
11339;BME280;5724;42.684;23.252;2022-10-20T04:15:13;94912.88;;;9.62;87.67
11339;BME280;5724;42.684;23.252;2022-10-20T04:17:39;94900.81;;;9.51;87.56
11339;BME280;5724;42.684;23.252;2022-10-20T04:20:05;94888.31;;;9.50;87.76
11339;BME280;5724;42.684;23.252;2022-10-20T04:22:31;94903.34;;;9.56;87.69
11339;BME280;5724;42.684;23.252;2022-10-20T04:24:56;94894.13;;;9.49;88.14
11339;BME280;5724;42.684;23.252;2022-10-20T04:27:22;94902.16;;;9.45;88.39
11339;BME280;5724;42.684;23.252;2022-10-20T04:29:47;94895.53;;;9.34;88.66
11339;BME280;5724;42.684;23.252;2022-10-20T04:32:13;94898.28;;;9.34;88.87
11339;BME280;5724;42.684;23.252;2022-10-20T04:34:38;94891.38;;;9.36;89.03
11339;BME280;5724;42.684;23.252;2022-10-20T04:37:04;94893.94;;;9.33;88.97
11339;BME280;5724;42.684;23.252;2022-10-20T04:39:29;94893.50;;;9.31;89.21
11339;BME280;5724;42.684;23.252;2022-10-20T04:41:55;94896.69;;;9.33;89.22
11339;BME280;5724;42.684;23.252;2022-10-20T04:44:20;94899.84;;;9.35;88.77
11339;BME280;5724;42.684;23.252;2022-10-20T04:46:46;94903.94;;;9.29;89.01
11339;BME280;5724;42.684;23.252;2022-10-20T04:49:12;94906.69;;;9.29;89.60
11339;BME280;5724;42.684;23.252;2022-10-20T04:51:37;94907.94;;;9.31;89.05
11339;BME280;5724;42.684;23.252;2022-10-20T04:54:03;94907.81;;;9.28;89.31
11339;BME280;5724;42.684;23.252;2022-10-20T04:56:28;94908.13;;;9.26;89.73
11339;BME280;5724;42.684;23.252;2022-10-20T04:58:55;94917.44;;;9.25;89.66
11339;BME280;5724;42.684;23.252;2022-10-20T05:01:26;94913.91;;;9.25;89.31
11339;BME280;5724;42.684;23.252;2022-10-20T05:03:52;94922.25;;;9.28;89.18
11339;BME280;5724;42.684;23.252;2022-10-20T05:06:24;94925.06;;;9.20;89.34
11339;BME280;5724;42.684;23.252;2022-10-20T05:08:51;94933.81;;;9.25;89.06
11339;BME280;5724;42.684;23.252;2022-10-20T05:11:19;94935.88;;;9.28;88.98
11339;BME280;5724;42.684;23.252;2022-10-20T05:13:44;94932.34;;;9.28;89.08
11339;BME280;5724;42.684;23.252;2022-10-20T05:16:10;94933.94;;;9.29;88.96
11339;BME280;5724;42.684;23.252;2022-10-20T05:18:37;94917.13;;;9.27;88.72
11339;BME280;5724;42.684;23.252;2022-10-20T05:21:10;94936.00;;;9.32;88.57
11339;BME280;5724;42.684;23.252;2022-10-20T05:23:37;94933.97;;;9.41;87.71
11339;BME280;5724;42.684;23.252;2022-10-20T05:26:05;94941.47;;;9.44;87.85
11339;BME280;5724;42.684;23.252;2022-10-20T05:28:31;94944.00;;;9.49;87.22
11339;BME280;5724;42.684;23.252;2022-10-20T05:31:03;94952.44;;;9.56;87.02
11339;BME280;5724;42.684;23.252;2022-10-20T05:33:29;94955.63;;;9.58;87.02
11339;BME280;5724;42.684;23.252;2022-10-20T05:35:54;94964.75;;;9.74;86.87
11339;BME280;5724;42.684;23.252;2022-10-20T05:38:20;94971.56;;;9.68;86.69
11339;BME280;5724;42.684;23.252;2022-10-20T05:40:45;94974.28;;;9.68;86.94
11339;BME280;5724;42.684;23.252;2022-10-20T05:43:10;94978.38;;;9.74;87.46
11339;BME280;5724;42.684;23.252;2022-10-20T05:45:36;94985.94;;;9.90;87.02
11339;BME280;5724;42.684;23.252;2022-10-20T05:48:01;94996.41;;;9.88;86.88
11339;BME280;5724;42.684;23.252;2022-10-20T05:50:27;94998.59;;;9.94;86.64
11339;BME280;5724;42.684;23.252;2022-10-20T05:52:52;95004.13;;;9.86;86.98
11339;BME280;5724;42.684;23.252;2022-10-20T05:55:18;95007.09;;;9.93;87.10
11339;BME280;5724;42.684;23.252;2022-10-20T05:57:43;95009.00;;;9.92;87.41
11339;BME280;5724;42.684;23.252;2022-10-20T06:00:09;94992.63;;;9.80;87.71
11339;BME280;5724;42.684;23.252;2022-10-20T06:02:35;95013.59;;;10.00;87.96
11339;BME280;5724;42.684;23.252;2022-10-20T06:05:01;95028.25;;;9.96;88.67
11339;BME280;5724;42.684;23.252;2022-10-20T06:07:27;95025.91;;;10.07;88.30
11339;BME280;5724;42.684;23.252;2022-10-20T06:09:52;95025.09;;;10.18;87.89
11339;BME280;5724;42.684;23.252;2022-10-20T06:12:18;95032.50;;;10.18;88.25
11339;BME280;5724;42.684;23.252;2022-10-20T06:14:43;95042.84;;;10.12;88.68
11339;BME280;5724;42.684;23.252;2022-10-20T06:17:08;95039.50;;;10.27;88.40
11339;BME280;5724;42.684;23.252;2022-10-20T06:19:34;95045.56;;;10.12;89.45
11339;BME280;5724;42.684;23.252;2022-10-20T06:21:59;95042.00;;;10.32;88.45
11339;BME280;5724;42.684;23.252;2022-10-20T06:24:25;95045.91;;;10.56;88.12
11339;BME280;5724;42.684;23.252;2022-10-20T06:26:50;95046.91;;;10.51;87.67
11339;BME280;5724;42.684;23.252;2022-10-20T06:29:17;95047.94;;;10.35;88.42
11339;BME280;5724;42.684;23.252;2022-10-20T06:31:45;95059.06;;;10.42;88.07
11339;BME280;5724;42.684;23.252;2022-10-20T06:34:22;95058.50;;;10.48;88.22
11339;BME280;5724;42.684;23.252;2022-10-20T06:36:48;95063.44;;;10.55;87.71
11339;BME280;5724;42.684;23.252;2022-10-20T06:39:18;95063.66;;;10.62;87.64
11339;BME280;5724;42.684;23.252;2022-10-20T06:41:48;95055.66;;;10.32;88.28
11339;BME280;5724;42.684;23.252;2022-10-20T06:44:16;95053.84;;;10.37;89.29
11339;BME280;5724;42.684;23.252;2022-10-20T06:46:41;95071.88;;;10.62;87.57
11339;BME280;5724;42.684;23.252;2022-10-20T06:49:07;95051.59;;;10.75;86.69
11339;BME280;5724;42.684;23.252;2022-10-20T06:51:33;95058.66;;;10.64;86.08
11339;BME280;5724;42.684;23.252;2022-10-20T06:53:59;95065.47;;;10.58;86.81
11339;BME280;5724;42.684;23.252;2022-10-20T06:56:27;95072.75;;;10.54;86.35
11339;BME280;5724;42.684;23.252;2022-10-20T06:58:54;95075.59;;;10.57;86.78
11339;BME280;5724;42.684;23.252;2022-10-20T07:01:28;95072.88;;;10.70;85.94
11339;BME280;5724;42.684;23.252;2022-10-20T07:03:57;95075.16;;;10.68;85.53
11339;BME280;5724;42.684;23.252;2022-10-20T07:06:44;95070.81;;;10.79;84.93
11339;BME280;5724;42.684;23.252;2022-10-20T07:09:13;95077.56;;;10.81;84.36
11339;BME280;5724;42.684;23.252;2022-10-20T07:11:40;95070.16;;;10.94;83.24
11339;BME280;5724;42.684;23.252;2022-10-20T07:14:05;95073.44;;;11.12;83.02
11339;BME280;5724;42.684;23.252;2022-10-20T07:16:32;95074.00;;;11.05;81.99
11339;BME280;5724;42.684;23.252;2022-10-20T07:18:59;95079.84;;;10.92;82.17
11339;BME280;5724;42.684;23.252;2022-10-20T07:21:26;95089.75;;;10.84;82.13
11339;BME280;5724;42.684;23.252;2022-10-20T07:23:53;95068.22;;;10.95;81.74
11339;BME280;5724;42.684;23.252;2022-10-20T07:26:25;95083.91;;;10.98;81.65
11339;BME280;5724;42.684;23.252;2022-10-20T07:28:52;95087.13;;;10.63;82.16
11339;BME280;5724;42.684;23.252;2022-10-20T07:31:31;95089.50;;;10.89;82.30
11339;BME280;5724;42.684;23.252;2022-10-20T07:33:58;95090.53;;;10.72;82.28
11339;BME280;5724;42.684;23.252;2022-10-20T07:36:26;95082.34;;;10.84;82.45
11339;BME280;5724;42.684;23.252;2022-10-20T07:38:54;95077.63;;;11.09;80.87
11339;BME280;5724;42.684;23.252;2022-10-20T07:41:20;95078.69;;;11.05;80.49
11339;BME280;5724;42.684;23.252;2022-10-20T07:43:45;95088.44;;;11.18;79.82
11339;BME280;5724;42.684;23.252;2022-10-20T07:46:11;95076.91;;;11.37;79.43
11339;BME280;5724;42.684;23.252;2022-10-20T07:48:38;95075.53;;;11.43;78.64
11339;BME280;5724;42.684;23.252;2022-10-20T07:54:00;95068.72;;;11.65;77.33
11339;BME280;5724;42.684;23.252;2022-10-20T07:56:37;95072.88;;;11.59;77.23
11339;BME280;5724;42.684;23.252;2022-10-20T07:59:04;95082.84;;;11.79;75.72
11339;BME280;5724;42.684;23.252;2022-10-20T08:01:30;95071.41;;;11.89;74.52
11339;BME280;5724;42.684;23.252;2022-10-20T08:03:55;95082.25;;;11.86;73.61
11339;BME280;5724;42.684;23.252;2022-10-20T08:06:21;95081.25;;;11.78;74.27
11339;BME280;5724;42.684;23.252;2022-10-20T08:08:46;95084.50;;;11.56;73.26
11339;BME280;5724;42.684;23.252;2022-10-20T08:11:12;95082.25;;;11.45;73.25
11339;BME280;5724;42.684;23.252;2022-10-20T08:13:37;95084.94;;;11.58;74.07
11339;BME280;5724;42.684;23.252;2022-10-20T08:16:09;95083.34;;;11.69;73.44
11339;BME280;5724;42.684;23.252;2022-10-20T08:18:35;95074.75;;;11.70;73.19
11339;BME280;5724;42.684;23.252;2022-10-20T08:21:18;95076.63;;;11.94;73.10
11339;BME280;5724;42.684;23.252;2022-10-20T08:23:48;95076.59;;;12.07;71.64
11339;BME280;5724;42.684;23.252;2022-10-20T08:26:25;95068.22;;;12.31;70.09
11339;BME280;5724;42.684;23.252;2022-10-20T08:28:52;95074.59;;;12.51;69.11
11339;BME280;5724;42.684;23.252;2022-10-20T08:31:19;95064.19;;;12.56;68.79
11339;BME280;5724;42.684;23.252;2022-10-20T08:33:44;95069.13;;;12.51;68.08
11339;BME280;5724;42.684;23.252;2022-10-20T08:36:12;95065.78;;;12.57;68.52
11339;BME280;5724;42.684;23.252;2022-10-20T08:38:39;95077.69;;;12.81;68.52
11339;BME280;5724;42.684;23.252;2022-10-20T08:41:14;95067.34;;;12.43;67.57
11339;BME280;5724;42.684;23.252;2022-10-20T08:43:40;95070.00;;;12.39;67.52
11339;BME280;5724;42.684;23.252;2022-10-20T08:46:13;95072.19;;;12.18;67.91
11339;BME280;5724;42.684;23.252;2022-10-20T08:48:39;95058.03;;;12.16;67.73
11339;BME280;5724;42.684;23.252;2022-10-20T08:51:04;95066.44;;;12.07;67.38
11339;BME280;5724;42.684;23.252;2022-10-20T08:53:34;95065.44;;;11.99;67.88
11339;BME280;5724;42.684;23.252;2022-10-20T08:56:02;95061.09;;;11.98;66.16
11339;BME280;5724;42.684;23.252;2022-10-20T08:58:28;95063.50;;;12.16;65.38
11339;BME280;5724;42.684;23.252;2022-10-20T09:00:56;95071.41;;;12.17;64.78
11339;BME280;5724;42.684;23.252;2022-10-20T09:03:26;95064.09;;;12.37;65.14
11339;BME280;5724;42.684;23.252;2022-10-20T09:06:15;95059.22;;;12.62;63.89
11339;BME280;5724;42.684;23.252;2022-10-20T09:08:42;95063.00;;;12.89;62.26
11339;BME280;5724;42.684;23.252;2022-10-20T09:11:13;95060.47;;;12.65;61.88
11339;BME280;5724;42.684;23.252;2022-10-20T09:13:40;95066.72;;;12.81;61.05
11339;BME280;5724;42.684;23.252;2022-10-20T09:16:27;95061.75;;;13.02;60.29
11339;BME280;5724;42.684;23.252;2022-10-20T09:18:59;95069.88;;;13.14;59.50
11339;BME280;5724;42.684;23.252;2022-10-20T09:21:26;95075.75;;;12.97;59.02
11339;BME280;5724;42.684;23.252;2022-10-20T09:23:55;95066.63;;;13.25;58.23
11339;BME280;5724;42.684;23.252;2022-10-20T09:29:22;95066.81;;;13.51;58.83
11339;BME280;5724;42.684;23.252;2022-10-20T09:31:58;95059.94;;;13.41;58.03
11339;BME280;5724;42.684;23.252;2022-10-20T09:34:33;95075.63;;;13.80;57.98
11339;BME280;5724;42.684;23.252;2022-10-20T09:39:36;95065.22;;;13.89;56.32
11339;BME280;5724;42.684;23.252;2022-10-20T09:42:11;95067.66;;;14.13;54.92
11339;BME280;5724;42.684;23.252;2022-10-20T09:44:48;95062.41;;;14.27;54.58
11339;BME280;5724;42.684;23.252;2022-10-20T09:47:16;95064.59;;;14.18;54.34
11339;BME280;5724;42.684;23.252;2022-10-20T09:49:43;95058.88;;;14.46;54.06
11339;BME280;5724;42.684;23.252;2022-10-20T09:52:30;95054.59;;;14.49;54.42
11339;BME280;5724;42.684;23.252;2022-10-20T09:55:01;95059.44;;;14.36;53.50
11339;BME280;5724;42.684;23.252;2022-10-20T09:57:27;95047.34;;;13.79;54.83
11339;BME280;5724;42.684;23.252;2022-10-20T09:59:55;95046.69;;;14.05;53.97
11339;BME280;5724;42.684;23.252;2022-10-20T10:04:49;95047.91;;;14.08;53.05
11339;BME280;5724;42.684;23.252;2022-10-20T10:09:54;95044.09;;;14.35;52.73
11339;BME280;5724;42.684;23.252;2022-10-20T10:12:22;95049.22;;;14.37;52.08
11339;BME280;5724;42.684;23.252;2022-10-20T10:17:41;95044.19;;;14.84;50.49
11339;BME280;5724;42.684;23.252;2022-10-20T10:22:36;95040.97;;;14.56;51.10
11339;BME280;5724;42.684;23.252;2022-10-20T10:25:03;95031.56;;;14.15;51.18
11339;BME280;5724;42.684;23.252;2022-10-20T10:27:34;95035.47;;;14.56;50.09
11339;BME280;5724;42.684;23.252;2022-10-20T10:30:32;95034.22;;;14.76;51.62
11339;BME280;5724;42.684;23.252;2022-10-20T10:32:59;95028.75;;;15.03;50.60
11339;BME280;5724;42.684;23.252;2022-10-20T10:35:39;95018.28;;;15.12;49.11
11339;BME280;5724;42.684;23.252;2022-10-20T10:38:09;95039.06;;;14.83;50.67
11339;BME280;5724;42.684;23.252;2022-10-20T10:40:42;95016.63;;;14.35;51.99
11339;BME280;5724;42.684;23.252;2022-10-20T10:45:50;95012.59;;;14.29;52.22
11339;BME280;5724;42.684;23.252;2022-10-20T10:51:28;95008.28;;;14.51;51.39
11339;BME280;5724;42.684;23.252;2022-10-20T10:59:35;95002.53;;;15.12;49.68
11339;BME280;5724;42.684;23.252;2022-10-20T11:12:53;94997.97;;;15.54;48.93
11339;BME280;5724;42.684;23.252;2022-10-20T11:18:41;94979.69;;;16.02;46.99
11339;BME280;5724;42.684;23.252;2022-10-20T11:21:19;94978.94;;;15.41;47.20
11339;BME280;5724;42.684;23.252;2022-10-20T11:28:51;94975.94;;;15.54;46.07
11339;BME280;5724;42.684;23.252;2022-10-20T11:34:11;94964.81;;;15.73;46.25
11339;BME280;5724;42.684;23.252;2022-10-20T11:36:54;94973.13;;;16.14;46.21
11339;BME280;5724;42.684;23.252;2022-10-20T11:42:13;94968.44;;;15.81;47.13
11339;BME280;5724;42.684;23.252;2022-10-20T11:44:44;94960.06;;;16.11;46.21
11339;BME280;5724;42.684;23.252;2022-10-20T11:47:16;94959.88;;;16.30;45.48
11339;BME280;5724;42.684;23.252;2022-10-20T11:49:43;94954.34;;;16.30;45.62
11339;BME280;5724;42.684;23.252;2022-10-20T12:06:09;94954.03;;;15.01;45.44
11339;BME280;5724;42.684;23.252;2022-10-20T12:11:34;94940.66;;;15.29;46.26
11339;BME280;5724;42.684;23.252;2022-10-20T12:14:38;94951.16;;;15.54;45.00
11339;BME280;5724;42.684;23.252;2022-10-20T12:17:34;94957.03;;;15.52;45.03
11339;BME280;5724;42.684;23.252;2022-10-20T12:22:45;94950.03;;;15.58;43.86
11339;BME280;5724;42.684;23.252;2022-10-20T12:27:42;94941.06;;;15.31;43.72
11339;BME280;5724;42.684;23.252;2022-10-20T12:37:53;94939.22;;;15.09;42.56
11339;BME280;5724;42.684;23.252;2022-10-20T12:40:33;94940.69;;;15.03;43.04
11339;BME280;5724;42.684;23.252;2022-10-20T12:43:05;94946.47;;;14.94;45.12
11339;BME280;5724;42.684;23.252;2022-10-20T12:45:39;94949.66;;;14.70;45.84
11339;BME280;5724;42.684;23.252;2022-10-20T12:48:07;94943.63;;;14.87;45.95
11339;BME280;5724;42.684;23.252;2022-10-20T12:50:37;94943.13;;;15.08;45.24
11339;BME280;5724;42.684;23.252;2022-10-20T12:55:55;94942.69;;;15.66;43.92
11339;BME280;5724;42.684;23.252;2022-10-20T13:05:57;94940.44;;;16.12;42.27
11339;BME280;5724;42.684;23.252;2022-10-20T13:08:25;94954.22;;;16.16;41.29
11339;BME280;5724;42.684;23.252;2022-10-20T13:10:51;94941.66;;;16.18;40.67
11339;BME280;5724;42.684;23.252;2022-10-20T13:15:48;94939.03;;;15.58;42.14
11339;BME280;5724;42.684;23.252;2022-10-20T13:24:10;94939.34;;;15.83;42.23
11339;BME280;5724;42.684;23.252;2022-10-20T13:26:46;94934.63;;;15.84;42.17
11339;BME280;5724;42.684;23.252;2022-10-20T13:31:51;94938.38;;;16.06;42.19
11339;BME280;5724;42.684;23.252;2022-10-20T13:34:31;94943.75;;;15.91;42.11
11339;BME280;5724;42.684;23.252;2022-10-20T13:37:07;94935.31;;;15.73;42.37
11339;BME280;5724;42.684;23.252;2022-10-20T13:47:44;94942.97;;;15.57;43.05
11339;BME280;5724;42.684;23.252;2022-10-20T13:52:52;94939.00;;;15.55;42.94
11339;BME280;5724;42.684;23.252;2022-10-20T13:55:21;94938.75;;;15.67;42.65
11339;BME280;5724;42.684;23.252;2022-10-20T13:58:03;94939.78;;;15.55;43.20
11339;BME280;5724;42.684;23.252;2022-10-20T14:00:31;94937.34;;;15.50;42.25
11339;BME280;5724;42.684;23.252;2022-10-20T14:03:03;94941.00;;;15.58;42.79
11339;BME280;5724;42.684;23.252;2022-10-20T14:05:36;94948.38;;;15.50;42.73
11339;BME280;5724;42.684;23.252;2022-10-20T14:08:07;94933.44;;;15.51;42.54
11339;BME280;5724;42.684;23.252;2022-10-20T14:10:42;94944.06;;;15.53;42.45
11339;BME280;5724;42.684;23.252;2022-10-20T14:13:13;94931.06;;;15.50;42.62
11339;BME280;5724;42.684;23.252;2022-10-20T14:15:44;94944.66;;;15.35;42.99
11339;BME280;5724;42.684;23.252;2022-10-20T14:18:22;94944.16;;;15.26;42.88
11339;BME280;5724;42.684;23.252;2022-10-20T14:21:06;94954.03;;;15.01;43.79
11339;BME280;5724;42.684;23.252;2022-10-20T14:23:41;94953.91;;;15.20;43.52
11339;BME280;5724;42.684;23.252;2022-10-20T14:26:16;94954.03;;;15.01;43.70
11339;BME280;5724;42.684;23.252;2022-10-20T14:28:43;94938.69;;;15.00;43.97
11339;BME280;5724;42.684;23.252;2022-10-20T14:31:10;94950.44;;;14.97;43.92
11339;BME280;5724;42.684;23.252;2022-10-20T14:33:43;94943.44;;;15.03;43.73
11339;BME280;5724;42.684;23.252;2022-10-20T14:38:45;94947.03;;;14.77;45.30
11339;BME280;5724;42.684;23.252;2022-10-20T14:41:26;94944.94;;;14.70;45.78
11339;BME280;5724;42.684;23.252;2022-10-20T14:43:56;94942.47;;;14.62;46.06
11339;BME280;5724;42.684;23.252;2022-10-20T14:46:44;94940.50;;;14.62;46.62
11339;BME280;5724;42.684;23.252;2022-10-20T14:49:21;94948.38;;;14.64;46.73
11339;BME280;5724;42.684;23.252;2022-10-20T14:56:55;94949.25;;;14.45;47.52
11339;BME280;5724;42.684;23.252;2022-10-20T14:59:23;94948.69;;;14.36;48.36
11339;BME280;5724;42.684;23.252;2022-10-20T15:02:01;94948.22;;;14.30;48.49
11339;BME280;5724;42.684;23.252;2022-10-20T15:04:32;94941.81;;;14.22;48.70
11339;BME280;5724;42.684;23.252;2022-10-20T15:07:15;94954.44;;;14.04;49.17
11339;BME280;5724;42.684;23.252;2022-10-20T15:09:59;94940.75;;;14.08;49.41
11339;BME280;5724;42.684;23.252;2022-10-20T15:12:39;94942.88;;;13.95;49.82
11339;BME280;5724;42.684;23.252;2022-10-20T15:15:20;94938.59;;;13.74;50.26
11339;BME280;5724;42.684;23.252;2022-10-20T15:17:51;94958.09;;;13.69;50.76
11339;BME280;5724;42.684;23.252;2022-10-20T15:20:30;94964.78;;;13.49;51.06
11339;BME280;5724;42.684;23.252;2022-10-20T15:23:00;94959.00;;;13.35;51.50
11339;BME280;5724;42.684;23.252;2022-10-20T15:25:27;94960.38;;;13.25;51.76
11339;BME280;5724;42.684;23.252;2022-10-20T15:27:54;94965.88;;;13.09;51.98
11339;BME280;5724;42.684;23.252;2022-10-20T15:30:22;94961.13;;;13.06;51.86
11339;BME280;5724;42.684;23.252;2022-10-20T15:32:48;94964.59;;;13.03;52.19
11339;BME280;5724;42.684;23.252;2022-10-20T15:35:16;94965.97;;;12.94;52.45
11339;BME280;5724;42.684;23.252;2022-10-20T15:37:52;94974.66;;;12.80;52.04
11339;BME280;5724;42.684;23.252;2022-10-20T15:40:21;94952.28;;;12.62;52.43
11339;BME280;5724;42.684;23.252;2022-10-20T15:42:47;94950.03;;;12.48;52.33
11339;BME280;5724;42.684;23.252;2022-10-20T15:45:19;94974.94;;;12.59;52.58
11339;BME280;5724;42.684;23.252;2022-10-20T15:47:45;94968.44;;;12.48;52.77
11339;BME280;5724;42.684;23.252;2022-10-20T15:50:11;94950.47;;;12.35;53.18